createdAt,value
2022-09-28T00:02:06.216Z,27.66
2022-09-28T00:04:36.202Z,27.74
2022-09-28T00:07:05.344Z,27.78
2022-09-28T00:09:34.734Z,27.66
2022-09-28T00:12:03.643Z,27.68
2022-09-28T00:14:33.427Z,27.65
2022-09-28T00:17:02.635Z,27.70
2022-09-28T00:19:32.026Z,27.66
2022-09-28T00:22:00.955Z,27.66
2022-09-28T00:24:31.437Z,27.64
2022-09-28T00:27:02.680Z,27.67
2022-09-28T00:29:38.309Z,27.76
2022-09-28T00:32:15.099Z,27.83
2022-09-28T00:34:49.893Z,27.75
2022-09-28T00:37:21.243Z,27.75
2022-09-28T00:39:50.562Z,27.70
2022-09-28T00:42:27.784Z,27.77
2022-09-28T00:44:58.648Z,27.71
2022-09-28T00:47:39.938Z,27.66
2022-09-28T00:50:27.362Z,27.82
2022-09-28T00:53:11.070Z,27.81
2022-09-28T00:55:48.090Z,27.80
2022-09-28T00:58:26.624Z,27.75
2022-09-28T01:01:02.295Z,27.77
2022-09-28T01:03:33.123Z,27.70
2022-09-28T01:06:08.063Z,27.76
2022-09-28T01:08:40.129Z,27.74
2022-09-28T01:11:11.087Z,27.74
2022-09-28T01:13:43.157Z,27.76
2022-09-28T01:16:18.863Z,27.80
2022-09-28T01:19:22.607Z,27.89
2022-09-28T01:22:06.158Z,27.93
2022-09-28T01:24:50.850Z,27.96
2022-09-28T01:27:33.910Z,27.97
2022-09-28T01:30:16.716Z,27.85
2022-09-28T01:33:09.255Z,28.06
2022-09-28T01:36:00.445Z,27.99
2022-09-28T01:38:40.772Z,28.10
2022-09-28T01:41:13.641Z,28.02
2022-09-28T01:43:50.210Z,28.06
2022-09-28T01:46:27.578Z,28.11
2022-09-28T01:49:00.221Z,28.16
2022-09-28T01:51:48.627Z,28.32
2022-09-28T01:54:37.806Z,28.36
2022-09-28T01:57:17.969Z,28.32
2022-09-28T02:00:09.281Z,28.37
2022-09-28T02:02:46.920Z,28.34
2022-09-28T02:05:34.230Z,28.51
2022-09-28T02:08:09.538Z,28.45
2022-09-28T02:10:58.803Z,28.64
2022-09-28T02:13:35.456Z,28.61
2022-09-28T02:16:25.974Z,28.60
2022-09-28T02:18:56.316Z,28.61
2022-09-28T02:21:49.913Z,28.74
2022-09-28T02:24:28.655Z,28.81
2022-09-28T02:27:05.489Z,28.89
2022-09-28T02:29:37.257Z,28.79
2022-09-28T02:32:07.395Z,28.90
2022-09-28T02:34:37.509Z,28.98
2022-09-28T02:37:07.790Z,29.05
2022-09-28T02:39:37.554Z,29.00
2022-09-28T02:42:19.290Z,29.16
2022-09-28T02:44:59.355Z,29.19
2022-09-28T02:47:50.709Z,29.29
2022-09-28T02:50:46.304Z,29.18
2022-09-28T02:53:33.331Z,29.42
2022-09-28T02:56:50.489Z,29.47
2022-09-28T02:59:20.158Z,29.34
2022-09-28T03:01:59.303Z,29.30
2022-09-28T03:04:41.538Z,29.44
2022-09-28T03:07:26.189Z,29.54
2022-09-28T03:10:10.477Z,29.73
2022-09-28T03:12:41.190Z,29.61
2022-09-28T03:15:35.259Z,29.81
2022-09-28T03:18:06.124Z,29.78
2022-09-28T03:20:36.268Z,29.80
2022-09-28T03:23:23.926Z,29.93
2022-09-28T03:25:54.991Z,30.03
2022-09-28T03:28:55.816Z,30.03
2022-09-28T03:31:27.743Z,30.03
2022-09-28T03:33:57.690Z,30.16
2022-09-28T03:36:27.373Z,30.16
2022-09-28T03:38:57.590Z,30.30
2022-09-28T03:41:29.037Z,30.36
2022-09-28T03:43:59.047Z,30.49
2022-09-28T03:46:30.847Z,30.49
2022-09-28T03:49:06.860Z,30.55
2022-09-28T03:51:36.913Z,30.46
2022-09-28T03:54:07.298Z,30.62
2022-09-28T03:56:37.284Z,30.72
2022-09-28T03:59:07.658Z,30.80
2022-09-28T04:01:38.709Z,30.94
2022-09-28T04:04:09.113Z,30.93
2022-09-28T04:06:39.034Z,31.04
2022-09-28T04:09:09.242Z,31.05
2022-09-28T04:11:59.721Z,31.00
2022-09-28T04:14:29.123Z,31.19
2022-09-28T04:16:59.263Z,31.25
2022-09-28T04:19:30.645Z,31.32
2022-09-28T04:22:01.901Z,31.33
2022-09-28T04:24:32.250Z,31.43
2022-09-28T04:27:21.959Z,31.37
2022-09-28T04:29:51.762Z,31.61
2022-09-28T04:32:22.547Z,31.60
2022-09-28T04:34:53.022Z,31.61
2022-09-28T04:37:22.570Z,31.79
2022-09-28T04:39:52.768Z,31.57
2022-09-28T04:42:22.028Z,31.83
2022-09-28T04:44:52.640Z,31.98
2022-09-28T04:47:21.728Z,32.04
2022-09-28T04:50:09.533Z,32.10
2022-09-28T04:52:58.406Z,31.99
2022-09-28T04:55:33.447Z,32.19
2022-09-28T04:58:06.195Z,32.36
2022-09-28T05:00:36.492Z,32.36
2022-09-28T05:03:17.489Z,32.46
2022-09-28T05:06:17.001Z,32.73
2022-09-28T05:08:48.416Z,32.66
2022-09-28T05:11:21.106Z,32.66
2022-09-28T05:13:52.003Z,32.73
2022-09-28T05:16:21.800Z,32.82
2022-09-28T05:19:17.488Z,32.92
2022-09-28T05:21:48.020Z,32.94
2022-09-28T05:24:17.520Z,32.99
2022-09-28T05:26:52.025Z,32.98
2022-09-28T05:29:22.124Z,32.83
2022-09-28T05:32:10.056Z,33.12
2022-09-28T05:34:46.736Z,33.35
2022-09-28T05:37:21.643Z,33.48
2022-09-28T05:39:51.248Z,33.54
2022-09-28T05:42:20.246Z,33.66
2022-09-28T05:44:49.625Z,33.56
2022-09-28T05:47:20.551Z,33.67
2022-09-28T05:49:50.007Z,33.81
2022-09-28T05:52:19.214Z,33.89
2022-09-28T05:54:49.245Z,33.80
2022-09-28T05:57:18.583Z,33.84
2022-09-28T05:59:47.574Z,34.02
2022-09-28T06:02:17.153Z,34.08
2022-09-28T06:04:46.813Z,34.15
2022-09-28T06:07:15.813Z,34.23
2022-09-28T06:09:45.543Z,34.16
2022-09-28T06:12:23.642Z,34.12
2022-09-28T06:14:58.288Z,34.23
2022-09-28T06:17:28.270Z,34.37
2022-09-28T06:20:17.312Z,34.35
2022-09-28T06:22:58.480Z,34.24
2022-09-28T06:25:28.918Z,34.41
2022-09-28T06:28:04.074Z,34.44
2022-09-28T06:30:36.121Z,34.50
2022-09-28T06:33:08.310Z,34.28
2022-09-28T06:35:43.551Z,34.34
2022-09-28T06:38:13.017Z,34.31
2022-09-28T06:40:42.242Z,34.01
2022-09-28T06:43:16.098Z,34.42
2022-09-28T06:46:04.437Z,34.42
2022-09-28T06:48:54.095Z,34.53
2022-09-28T06:51:43.202Z,34.54
2022-09-28T06:54:26.793Z,34.35
2022-09-28T06:57:16.307Z,34.36
2022-09-28T06:59:45.948Z,34.47
2022-09-28T07:02:15.495Z,34.48
2022-09-28T07:04:57.192Z,34.65
2022-09-28T07:07:38.059Z,34.60
2022-09-28T07:10:25.157Z,34.61
2022-09-28T07:13:31.194Z,34.47
2022-09-28T07:16:08.135Z,34.66
2022-09-28T07:18:37.854Z,34.67
2022-09-28T07:21:11.620Z,34.72
2022-09-28T07:23:52.966Z,34.68
2022-09-28T07:26:27.127Z,34.58
2022-09-28T07:29:03.696Z,34.72
2022-09-28T07:31:43.270Z,34.71
2022-09-28T07:34:30.781Z,34.67
2022-09-28T07:37:14.513Z,34.57
2022-09-28T07:40:01.880Z,34.61
2022-09-28T07:42:33.589Z,34.47
2022-09-28T07:45:02.710Z,34.54
2022-09-28T07:47:35.093Z,34.63
2022-09-28T07:50:23.310Z,34.69
2022-09-28T07:53:01.468Z,34.59
2022-09-28T07:55:33.494Z,34.59
2022-09-28T07:58:41.366Z,34.67
2022-09-28T08:01:28.770Z,34.52
2022-09-28T08:03:57.952Z,34.58
2022-09-28T08:06:28.349Z,34.67
2022-09-28T08:08:58.084Z,34.41
2022-09-28T08:11:37.706Z,34.73
2022-09-28T08:14:26.712Z,34.68
2022-09-28T08:17:04.702Z,34.75
2022-09-28T08:20:19.366Z,34.71
2022-09-28T08:22:48.665Z,34.62
2022-09-28T08:25:18.242Z,34.58
2022-09-28T08:27:48.123Z,34.60
2022-09-28T08:30:17.756Z,34.43
2022-09-28T08:32:53.850Z,34.45
2022-09-28T08:35:42.812Z,34.48
2022-09-28T08:38:38.985Z,34.44
2022-09-28T08:41:29.400Z,34.53
2022-09-28T08:44:11.749Z,34.38
2022-09-28T08:47:08.025Z,34.46
2022-09-28T08:50:04.934Z,34.40
2022-09-28T08:53:04.706Z,34.45
2022-09-28T08:55:51.909Z,34.19
2022-09-28T08:58:31.604Z,34.43
2022-09-28T09:01:04.348Z,34.37
2022-09-28T09:03:42.915Z,34.53
2022-09-28T09:06:56.821Z,34.52
2022-09-28T09:09:51.285Z,34.56
2022-09-28T09:12:41.732Z,34.54
2022-09-28T09:15:40.126Z,34.55
2022-09-28T09:18:44.962Z,34.51
2022-09-28T09:22:01.260Z,34.53
2022-09-28T09:24:43.744Z,34.48
2022-09-28T09:27:41.985Z,34.44
2022-09-28T09:30:24.092Z,34.28
2022-09-28T09:33:03.527Z,34.53
2022-09-28T09:36:01.497Z,34.55
2022-09-28T09:39:03.375Z,34.48
2022-09-28T09:41:42.002Z,34.54
2022-09-28T09:44:36.371Z,34.56
2022-09-28T09:47:33.292Z,34.58
2022-09-28T09:50:26.408Z,34.44
2022-09-28T09:53:01.996Z,34.48
2022-09-28T09:55:34.126Z,34.45
2022-09-28T09:58:30.827Z,34.45
2022-09-28T10:01:15.593Z,34.49
2022-09-28T10:04:14.229Z,34.38
2022-09-28T10:06:45.059Z,34.20
2022-09-28T10:09:24.995Z,34.37
2022-09-28T10:11:55.426Z,34.33
2022-09-28T10:14:26.892Z,34.27
2022-09-28T10:17:13.428Z,34.19
2022-09-28T10:20:16.350Z,34.19
2022-09-28T10:23:04.136Z,34.20
2022-09-28T10:25:37.861Z,34.22
2022-09-28T10:28:09.079Z,34.23
2022-09-28T10:30:45.555Z,34.21
2022-09-28T10:33:35.689Z,34.24
2022-09-28T10:36:09.668Z,34.14
2022-09-28T10:38:39.258Z,34.13
2022-09-28T10:41:14.518Z,34.12
2022-09-28T10:44:07.870Z,34.06
2022-09-28T10:46:43.232Z,34.09
2022-09-28T10:49:20.104Z,34.11
2022-09-28T10:51:57.758Z,33.97
2022-09-28T10:54:33.600Z,33.94
2022-09-28T10:57:03.116Z,33.79
2022-09-28T10:59:54.840Z,33.81
2022-09-28T11:02:34.877Z,33.72
2022-09-28T11:05:31.052Z,33.88
2022-09-28T11:08:06.794Z,33.81
2022-09-28T11:10:44.318Z,33.63
2022-09-28T11:13:16.375Z,33.71
2022-09-28T11:15:55.621Z,33.56
2022-09-28T11:18:35.683Z,33.64
2022-09-28T11:21:15.768Z,33.63
2022-09-28T11:24:19.280Z,33.59
2022-09-28T11:26:54.188Z,33.53
2022-09-28T11:29:39.214Z,33.56
2022-09-28T11:32:32.464Z,33.47
2022-09-28T11:35:53.830Z,33.51
2022-09-28T11:38:36.870Z,33.40
2022-09-28T11:41:46.473Z,33.44
2022-09-28T11:44:21.499Z,33.25
2022-09-28T11:47:06.220Z,32.99
2022-09-28T11:49:48.452Z,33.13
2022-09-28T11:52:36.825Z,33.09
2022-09-28T11:55:35.033Z,33.03
2022-09-28T11:58:24.372Z,33.01
2022-09-28T12:01:10.562Z,33.01
2022-09-28T12:04:13.877Z,32.98
2022-09-28T12:07:00.331Z,32.89
2022-09-28T12:09:42.793Z,32.83
2022-09-28T12:12:38.331Z,32.89
2022-09-28T12:15:16.976Z,32.89
2022-09-28T12:18:15.938Z,32.89
2022-09-28T12:20:50.292Z,32.84
2022-09-28T12:23:36.949Z,32.85
2022-09-28T12:26:43.204Z,32.80
2022-09-28T12:29:16.828Z,32.67
2022-09-28T12:32:04.349Z,32.71
2022-09-28T12:34:33.751Z,32.52
2022-09-28T12:37:16.206Z,32.60
2022-09-28T12:39:58.408Z,32.40
2022-09-28T12:42:47.714Z,32.48
2022-09-28T12:45:53.150Z,32.42
2022-09-28T12:48:33.108Z,32.34
2022-09-28T12:51:13.500Z,32.32
2022-09-28T12:54:14.260Z,32.29
2022-09-28T12:57:05.926Z,32.23
2022-09-28T13:00:13.038Z,32.21
2022-09-28T13:03:08.345Z,32.18
2022-09-28T13:05:51.130Z,32.05
2022-09-28T13:08:32.517Z,32.11
2022-09-28T13:11:07.722Z,31.96
2022-09-28T13:13:57.480Z,32.05
2022-09-28T13:16:29.210Z,31.84
2022-09-28T13:19:17.069Z,31.99
2022-09-28T13:21:58.638Z,31.93
2022-09-28T13:24:36.621Z,31.82
2022-09-28T13:27:16.428Z,31.86
2022-09-28T13:29:46.615Z,31.75
2022-09-28T13:32:16.213Z,31.71
2022-09-28T13:34:50.823Z,31.82
2022-09-28T13:37:25.403Z,31.86
2022-09-28T13:40:06.800Z,31.84
2022-09-28T13:42:53.742Z,31.80
2022-09-28T13:45:23.227Z,31.62
2022-09-28T13:48:18.661Z,31.67
2022-09-28T13:51:18.587Z,31.66
2022-09-28T13:53:56.991Z,31.62
2022-09-28T13:56:29.576Z,31.53
2022-09-28T13:58:58.916Z,31.49
2022-09-28T14:01:37.939Z,31.54
2022-09-28T14:04:22.915Z,31.47
2022-09-28T14:07:11.041Z,31.45
2022-09-28T14:09:48.019Z,31.39
2022-09-28T14:12:45.606Z,31.37
2022-09-28T14:15:36.586Z,31.38
2022-09-28T14:18:22.094Z,31.37
2022-09-28T14:21:03.589Z,31.25
2022-09-28T14:24:10.220Z,31.23
2022-09-28T14:27:05.117Z,31.17
2022-09-28T14:29:38.273Z,31.14
2022-09-28T14:32:10.198Z,31.06
2022-09-28T14:34:49.486Z,31.17
2022-09-28T14:37:59.590Z,31.15
2022-09-28T14:41:13.841Z,31.06
2022-09-28T14:43:45.949Z,31.01
2022-09-28T14:46:15.201Z,30.92
2022-09-28T14:49:05.174Z,31.04
2022-09-28T14:51:36.573Z,30.78
2022-09-28T14:54:14.676Z,30.89
2022-09-28T14:56:51.167Z,30.91
2022-09-28T14:59:26.249Z,30.87
2022-09-28T15:02:15.337Z,30.89
2022-09-28T15:04:48.110Z,30.81
2022-09-28T15:07:51.675Z,30.94
2022-09-28T15:10:53.685Z,30.95
2022-09-28T15:13:27.409Z,30.76
2022-09-28T15:16:04.894Z,30.69
2022-09-28T15:19:02.575Z,30.78
2022-09-28T15:21:44.118Z,30.77
2022-09-28T15:24:34.678Z,30.76
2022-09-28T15:27:15.200Z,30.57
2022-09-28T15:30:01.682Z,30.60
2022-09-28T15:32:33.240Z,30.55
2022-09-28T15:35:27.528Z,30.65
2022-09-28T15:37:57.528Z,30.41
2022-09-28T15:40:36.199Z,30.50
2022-09-28T15:43:34.802Z,30.61
2022-09-28T15:46:21.444Z,30.53
2022-09-28T15:48:53.819Z,30.51
2022-09-28T15:51:32.540Z,30.66
2022-09-28T15:54:05.518Z,30.54
2022-09-28T15:57:03.800Z,30.62
2022-09-28T15:59:41.881Z,30.55
2022-09-28T16:02:26.507Z,30.53
2022-09-28T16:05:04.170Z,30.53
2022-09-28T16:07:59.308Z,30.54
2022-09-28T16:10:34.979Z,30.49
2022-09-28T16:13:18.337Z,30.44
2022-09-28T16:15:48.357Z,30.30
2022-09-28T16:18:26.677Z,30.45
2022-09-28T16:21:00.467Z,30.38
2022-09-28T16:23:35.243Z,30.43
2022-09-28T16:26:14.510Z,30.46
2022-09-28T16:28:47.079Z,30.33
2022-09-28T16:31:17.647Z,30.34
2022-09-28T16:34:09.493Z,30.42
2022-09-28T16:36:48.252Z,30.24
2022-09-28T16:39:19.566Z,30.28
2022-09-28T16:42:01.152Z,30.33
2022-09-28T16:44:34.481Z,30.04
2022-09-28T16:47:05.264Z,30.16
2022-09-28T16:49:36.686Z,30.20
2022-09-28T16:52:13.548Z,30.21
2022-09-28T16:55:01.418Z,30.06
2022-09-28T16:57:30.982Z,30.05
2022-09-28T17:00:02.745Z,30.05
2022-09-28T17:02:46.230Z,30.05
2022-09-28T17:05:38.176Z,30.04
2022-09-28T17:08:08.976Z,29.99
2022-09-28T17:11:15.540Z,30.15
2022-09-28T17:13:49.466Z,30.04
2022-09-28T17:16:42.944Z,30.08
2022-09-28T17:19:28.716Z,30.09
2022-09-28T17:21:59.854Z,30.01
2022-09-28T17:24:43.072Z,29.92
2022-09-28T17:27:17.829Z,29.91
2022-09-28T17:29:49.774Z,29.86
2022-09-28T17:32:20.639Z,29.85
2022-09-28T17:35:00.718Z,29.82
2022-09-28T17:37:40.107Z,29.75
2022-09-28T17:40:21.698Z,29.88
2022-09-28T17:42:57.299Z,29.79
2022-09-28T17:45:32.639Z,29.78
2022-09-28T17:48:02.223Z,29.73
2022-09-28T17:50:35.157Z,29.82
2022-09-28T17:53:07.181Z,29.73
2022-09-28T17:55:38.855Z,29.79
2022-09-28T17:58:18.806Z,29.81
2022-09-28T18:00:50.162Z,29.75
2022-09-28T18:03:24.808Z,29.73
2022-09-28T18:06:05.517Z,29.74
2022-09-28T18:08:35.618Z,29.57
2022-09-28T18:11:04.708Z,29.56
2022-09-28T18:13:33.861Z,29.57
2022-09-28T18:16:03.371Z,29.61
2022-09-28T18:18:34.449Z,29.49
2022-09-28T18:21:03.927Z,29.48
2022-09-28T18:23:33.040Z,29.44
2022-09-28T18:26:02.737Z,29.41
2022-09-28T18:28:32.217Z,29.37
2022-09-28T18:31:07.969Z,29.35
2022-09-28T18:33:37.744Z,29.36
2022-09-28T18:36:08.558Z,29.26
2022-09-28T18:38:39.796Z,29.24
2022-09-28T18:41:11.335Z,29.39
2022-09-28T18:43:40.430Z,29.38
2022-09-28T18:46:12.484Z,29.40
2022-09-28T18:48:42.049Z,29.37
2022-09-28T18:51:13.556Z,29.39
2022-09-28T18:53:42.964Z,29.40
2022-09-28T18:56:22.425Z,29.50
2022-09-28T18:58:54.584Z,29.39
2022-09-28T19:01:31.705Z,29.33
2022-09-28T19:04:06.456Z,29.30
2022-09-28T19:06:39.826Z,29.29
2022-09-28T19:09:09.863Z,29.22
2022-09-28T19:11:39.390Z,29.25
2022-09-28T19:14:08.395Z,29.22
2022-09-28T19:16:37.450Z,29.26
2022-09-28T19:19:07.702Z,29.08
2022-09-28T19:21:37.054Z,29.09
2022-09-28T19:24:06.511Z,29.07
2022-09-28T19:26:36.171Z,29.16
2022-09-28T19:29:05.399Z,29.09
2022-09-28T19:31:34.854Z,29.07
2022-09-28T19:34:04.475Z,29.02
2022-09-28T19:36:34.048Z,29.04
2022-09-28T19:39:04.634Z,28.99
2022-09-28T19:41:52.205Z,28.94
2022-09-28T19:44:26.208Z,28.95
2022-09-28T19:47:09.736Z,29.04
2022-09-28T19:49:41.297Z,29.04
2022-09-28T19:52:17.273Z,29.01
2022-09-28T19:54:58.294Z,28.98
2022-09-28T19:57:29.533Z,29.07
2022-09-28T20:00:02.688Z,29.06
2022-09-28T20:02:36.439Z,29.00
2022-09-28T20:05:06.162Z,28.88
2022-09-28T20:07:37.115Z,28.94
2022-09-28T20:10:06.678Z,29.01
2022-09-28T20:12:36.123Z,28.97
2022-09-28T20:15:06.518Z,29.04
2022-09-28T20:17:37.963Z,29.09
2022-09-28T20:20:07.380Z,29.03
2022-09-28T20:22:38.047Z,29.00
2022-09-28T20:25:07.788Z,29.06
2022-09-28T20:27:37.009Z,29.07
2022-09-28T20:30:07.570Z,29.06
2022-09-28T20:32:36.895Z,29.07
2022-09-28T20:35:06.923Z,29.03
2022-09-28T20:37:36.232Z,28.99
2022-09-28T20:40:05.567Z,28.98
2022-09-28T20:42:34.611Z,29.01
2022-09-28T20:45:03.952Z,29.02
2022-09-28T20:47:33.042Z,28.93
2022-09-28T20:50:02.200Z,28.97
2022-09-28T20:52:31.333Z,28.86
2022-09-28T20:55:00.497Z,28.94
2022-09-28T20:57:30.048Z,29.01
2022-09-28T20:59:59.448Z,29.03
2022-09-28T21:02:29.195Z,28.97
2022-09-28T21:04:58.526Z,28.85
2022-09-28T21:07:27.348Z,28.72
2022-09-28T21:09:56.806Z,28.70
2022-09-28T21:12:32.385Z,28.71
2022-09-28T21:15:05.772Z,28.70
2022-09-28T21:17:35.304Z,28.67
2022-09-28T21:20:05.235Z,28.70
2022-09-28T21:22:34.319Z,28.67
2022-09-28T21:25:03.509Z,28.69
2022-09-28T21:27:32.647Z,28.67
2022-09-28T21:30:02.532Z,28.63
2022-09-28T21:32:31.603Z,28.64
2022-09-28T21:35:00.991Z,28.65
2022-09-28T21:37:30.339Z,28.64
2022-09-28T21:40:00.677Z,28.64
2022-09-28T21:42:29.850Z,28.60
2022-09-28T21:44:59.621Z,28.66
2022-09-28T21:47:28.569Z,28.61
2022-09-28T21:49:57.649Z,28.60
2022-09-28T21:52:26.836Z,28.64
2022-09-28T21:54:56.103Z,28.63
2022-09-28T21:57:25.048Z,28.66
2022-09-28T21:59:54.287Z,28.63
2022-09-28T22:02:24.224Z,28.60
2022-09-28T22:04:53.140Z,28.63
2022-09-28T22:07:22.514Z,28.61
2022-09-28T22:09:53.501Z,28.60
2022-09-28T22:12:23.065Z,28.60
2022-09-28T22:14:52.080Z,28.59
2022-09-28T22:17:21.363Z,28.60
2022-09-28T22:19:51.235Z,28.62
2022-09-28T22:22:20.444Z,28.61
2022-09-28T22:24:49.405Z,28.60
2022-09-28T22:27:18.783Z,28.58
2022-09-28T22:29:47.943Z,28.51
2022-09-28T22:32:17.036Z,28.51
2022-09-28T22:34:46.111Z,28.53
2022-09-28T22:37:15.492Z,28.48
2022-09-28T22:39:44.415Z,28.50
2022-09-28T22:42:13.438Z,28.50
2022-09-28T22:44:42.766Z,28.50
2022-09-28T22:47:11.647Z,28.52
2022-09-28T22:49:40.845Z,28.54
2022-09-28T22:52:09.908Z,28.50
2022-09-28T22:54:41.434Z,28.51
2022-09-28T22:57:10.651Z,28.56
2022-09-28T22:59:39.758Z,28.59
2022-09-28T23:02:09.089Z,28.56
2022-09-28T23:04:38.098Z,28.57
2022-09-28T23:07:07.672Z,28.60
2022-09-28T23:09:36.711Z,28.59
2022-09-28T23:12:05.872Z,28.61
2022-09-28T23:14:35.046Z,28.59
2022-09-28T23:17:04.264Z,28.54
2022-09-28T23:19:33.662Z,28.45
2022-09-28T23:22:02.720Z,28.44
2022-09-28T23:24:31.904Z,28.47
2022-09-28T23:27:01.057Z,28.39
2022-09-28T23:29:30.235Z,28.37
2022-09-28T23:32:02.679Z,28.43
2022-09-28T23:34:32.140Z,28.41
2022-09-28T23:37:05.280Z,28.41
2022-09-28T23:39:34.598Z,28.45
2022-09-28T23:42:04.106Z,28.40
2022-09-28T23:44:33.729Z,28.41
2022-09-28T23:47:03.112Z,28.35
2022-09-28T23:49:33.281Z,28.39
2022-09-28T23:52:02.658Z,28.38
2022-09-28T23:54:31.701Z,28.35
2022-09-28T23:57:01.717Z,28.30
2022-09-28T23:59:30.860Z,28.38
